Decoded Metar for YBMA (MOUNT ISA in AUSTRALIA) (IATA:ISA) | Meteo·Mobile Aviation Weather
aviador You're here:

YBMA Decoded Metar

MOUNT ISA in AUSTRALIA
Report Time2019-10-22 13:30:00
UTC Time2019-10-22 13:51:09
Flight Rules vfr VFR
WindCalm
Visibility9999 m
Phenomena:N/A
Clouds:N/A
Expected CloudBase > 8,000 ft AGL from Temp-Dew spread
CeilingNone
Temp24°C (ISA +11)
Dew Point04°C (27% RH)
AAT22.7°C
QNH1015 hPa
Density Alt2,477 ft
Elevation1,129 ft
Report Wrong Elevation
Raw Report
YBMA 221330Z AUTO 00000KT 9999 // NCD 24/04 Q1015 RF00.0/000.0=

Extra information for YBMA:More info

Metar Taf Metar & Taf Last 4 Metars F.Rules Stats Wind Profile Meteogram Temp Stats Airport Information Weather charts Add Link Nearby VenuesMetar ALERT Operation Metar Decoded Social comments